HTMU

Musoma Airport

Musoma, Tanzania
METAR HTMU 181300Z 25015KT 9999 FEW023 FEW025CB BKN100 26/18 Q1015
Observed Flight Rules
Jan-18 @ 13:00 UTC (48 minutes ago) Visual Flight Rules
Wind Visibility Clouds
250° at 15 knots 10,000+ meters
  • Few at 2,300' AGL
  • Few at 2,500' AGL
  • Broken at 10,000' AGL
Temperatures Readings
Current 26°C / 79°F
Dewpoint 18°C / 64°F
Humidity 61%
Altimeter 29.97" Hg
Pressure 1014.92 hPa
Elevation 1147
METAR HTMU 181300Z 25015KT 9999 FEW023 FEW025CB BKN100 26/18 Q1015
Observed Flight Rules
Jan-18 @ 13:00 UTC
(48 minutes ago)
VFR
Wind Visibility
250° at 15 knots 10,000+ meters
Clouds
  • Few at 2,300' AGL
  • Few at 2,500' AGL
  • Broken at 10,000' AGL
Temperature Dewpoint
26°C / 79°F 18°C / 64°F
Humidity Altimeter Pressure
61% 29.97" Hg 1014.92 hPa